createdAt,value
2023-02-27T00:02:17.942Z,-0.09
2023-02-27T00:04:45.681Z,0.08
2023-02-27T00:07:13.583Z,-0.78
2023-02-27T00:09:42.691Z,-0.38
2023-02-27T00:12:11.980Z,-0.23
2023-02-27T00:14:39.879Z,0.14
2023-02-27T00:17:07.953Z,0.23
2023-02-27T00:19:35.814Z,0.11
2023-02-27T00:22:03.485Z,0.27
2023-02-27T00:24:31.389Z,-0.01
2023-02-27T00:27:00.489Z,-0.06
2023-02-27T00:29:28.819Z,-0.02
2023-02-27T00:31:56.644Z,-0.07
2023-02-27T00:34:25.348Z,0.04
2023-02-27T00:36:54.007Z,-0.45
2023-02-27T00:39:21.771Z,-0.60
2023-02-27T00:41:49.472Z,-0.77
2023-02-27T00:44:18.663Z,-0.27
2023-02-27T00:46:47.018Z,-0.25
2023-02-27T00:49:14.843Z,-0.11
2023-02-27T00:51:42.865Z,-0.24
2023-02-27T00:54:10.859Z,0.12
2023-02-27T00:56:38.588Z,-0.15
2023-02-27T00:59:06.482Z,0.41
2023-02-27T01:01:35.560Z,0.30
2023-02-27T01:04:03.616Z,0.15
2023-02-27T01:06:31.555Z,0.13
2023-02-27T01:08:59.301Z,0.26
2023-02-27T01:11:27.374Z,0.30
2023-02-27T01:13:55.368Z,-0.19
2023-02-27T01:16:23.313Z,-0.58
2023-02-27T01:18:54.057Z,-0.26
2023-02-27T01:21:24.242Z,-0.16
2023-02-27T01:23:52.296Z,-0.22
2023-02-27T01:26:20.578Z,-0.20
2023-02-27T01:28:48.528Z,0.09
2023-02-27T01:31:16.396Z,-0.16
2023-02-27T01:33:44.118Z,-0.48
2023-02-27T01:36:13.364Z,-0.03
2023-02-27T01:38:41.240Z,0.11
2023-02-27T01:41:08.953Z,0.09
2023-02-27T01:43:58.289Z,-0.27
2023-02-27T01:46:26.518Z,-0.26
2023-02-27T01:48:59.668Z,0.02
2023-02-27T01:51:34.061Z,0.17
2023-02-27T01:54:04.228Z,-0.21
2023-02-27T01:56:33.567Z,-0.79
2023-02-27T01:59:08.781Z,-1.08
2023-02-27T02:01:37.290Z,-0.48
2023-02-27T02:04:11.368Z,-0.38
2023-02-27T02:06:45.138Z,-0.49
2023-02-27T02:09:16.892Z,-0.13
2023-02-27T02:11:45.302Z,-0.26
2023-02-27T02:14:13.135Z,-0.12
2023-02-27T02:17:13.758Z,-0.26
2023-02-27T02:20:26.946Z,-0.07
2023-02-27T02:23:23.668Z,-0.49
2023-02-27T02:26:13.854Z,-0.74
2023-02-27T02:29:07.982Z,-0.23
2023-02-27T02:31:58.689Z,-0.37
2023-02-27T02:34:57.144Z,-0.06
2023-02-27T02:37:59.271Z,-0.28
2023-02-27T02:40:38.264Z,-0.59
2023-02-27T02:43:13.336Z,-0.17
2023-02-27T02:45:49.575Z,-0.44
2023-02-27T02:48:26.645Z,-0.39
2023-02-27T02:51:02.434Z,0.15
2023-02-27T02:53:37.386Z,0.16
2023-02-27T02:56:14.074Z,-0.75
2023-02-27T02:58:46.721Z,-0.46
2023-02-27T03:01:17.770Z,-0.11
2023-02-27T03:03:50.687Z,0.08
2023-02-27T03:06:23.277Z,-0.17
2023-02-27T03:08:56.257Z,-0.41
2023-02-27T03:11:30.311Z,-0.01
2023-02-27T03:14:04.692Z,-0.50
2023-02-27T03:16:35.273Z,-0.29
2023-02-27T03:19:10.138Z,-0.56
2023-02-27T03:21:45.068Z,-0.52
2023-02-27T03:24:19.679Z,-0.56
2023-02-27T03:26:52.860Z,-0.63
2023-02-27T03:29:27.400Z,-0.67
2023-02-27T03:31:58.228Z,-0.38
2023-02-27T03:34:30.414Z,-0.48
2023-02-27T03:37:06.460Z,-0.01
2023-02-27T03:39:45.607Z,0.08
2023-02-27T03:42:25.379Z,-0.21
2023-02-27T03:45:34.761Z,-0.47
2023-02-27T03:48:04.458Z,-0.59
2023-02-27T03:50:32.265Z,-0.64
2023-02-27T03:53:00.385Z,-0.28
2023-02-27T03:55:33.641Z,-0.27
2023-02-27T03:58:03.262Z,-0.23
2023-02-27T04:00:31.175Z,-0.07
2023-02-27T04:03:01.461Z,0.08
2023-02-27T04:05:31.118Z,-0.21
2023-02-27T04:08:27.025Z,-0.24
2023-02-27T04:11:18.805Z,0.09
2023-02-27T04:13:58.686Z,-0.20
2023-02-27T04:16:47.033Z,-0.17
2023-02-27T04:19:24.837Z,-0.40
2023-02-27T04:22:02.125Z,-0.69
2023-02-27T04:24:37.560Z,-0.39
2023-02-27T04:27:15.603Z,-0.29
2023-02-27T04:29:55.262Z,-0.13
2023-02-27T04:32:31.542Z,-0.32
2023-02-27T04:35:03.496Z,-0.50
2023-02-27T04:37:37.385Z,-0.55
2023-02-27T04:40:09.840Z,-0.40
2023-02-27T04:42:42.919Z,-0.32
2023-02-27T04:45:15.883Z,-0.43
2023-02-27T04:47:48.566Z,-0.54
2023-02-27T04:50:20.377Z,-0.62
2023-02-27T04:52:53.974Z,-0.77
2023-02-27T04:55:25.348Z,-0.62
2023-02-27T04:57:56.793Z,-0.83
2023-02-27T05:00:28.266Z,-0.62
2023-02-27T05:03:01.226Z,-0.67
2023-02-27T05:05:33.342Z,-0.57
2023-02-27T05:08:08.061Z,-0.83
2023-02-27T05:10:40.077Z,-0.88
2023-02-27T05:13:14.346Z,-0.61
2023-02-27T05:15:48.428Z,-1.01
2023-02-27T05:18:20.139Z,-0.83
2023-02-27T05:20:56.133Z,-0.78
2023-02-27T05:23:33.604Z,-0.76
2023-02-27T05:26:06.768Z,-1.06
2023-02-27T05:28:37.868Z,-0.89
2023-02-27T05:31:16.326Z,-1.07
2023-02-27T05:33:48.530Z,-1.05
2023-02-27T05:36:22.036Z,-0.82
2023-02-27T05:38:53.931Z,-0.62
2023-02-27T05:41:27.545Z,-0.65
2023-02-27T05:43:59.762Z,-1.10
2023-02-27T05:46:33.425Z,-1.02
2023-02-27T05:49:05.109Z,-0.80
2023-02-27T05:51:36.703Z,-0.54
2023-02-27T05:54:08.856Z,-0.97
2023-02-27T05:56:38.233Z,-1.17
2023-02-27T05:59:09.715Z,-0.54
2023-02-27T06:01:38.871Z,-0.87
2023-02-27T06:04:06.622Z,-0.77
2023-02-27T06:06:36.876Z,-0.20
2023-02-27T06:09:04.838Z,-0.70
2023-02-27T06:11:32.559Z,-0.63
2023-02-27T06:14:00.275Z,-0.73
2023-02-27T06:16:28.325Z,-0.90
2023-02-27T06:18:57.566Z,-1.10
2023-02-27T06:21:25.364Z,-0.91
2023-02-27T06:23:53.044Z,-1.01
2023-02-27T06:26:20.751Z,-1.07
2023-02-27T06:28:48.462Z,-1.38
2023-02-27T06:31:16.511Z,-1.15
2023-02-27T06:33:44.311Z,-1.02
2023-02-27T06:36:13.488Z,-0.55
2023-02-27T06:38:41.586Z,-0.37
2023-02-27T06:41:09.406Z,-0.36
2023-02-27T06:43:37.189Z,-0.45
2023-02-27T06:46:05.348Z,-0.71
2023-02-27T06:48:34.601Z,-0.31
2023-02-27T06:51:03.450Z,-0.41
2023-02-27T06:53:32.600Z,-0.20
2023-02-27T06:56:00.389Z,0.16
2023-02-27T06:58:28.212Z,0.01
2023-02-27T07:00:55.962Z,0.39
2023-02-27T07:03:23.667Z,-0.05
2023-02-27T07:05:51.428Z,0.20
2023-02-27T07:08:19.143Z,0.42
2023-02-27T07:10:49.058Z,0.29
2023-02-27T07:13:19.496Z,0.63
2023-02-27T07:15:47.831Z,0.23
2023-02-27T07:18:16.319Z,0.13
2023-02-27T07:20:44.034Z,0.66
2023-02-27T07:23:11.764Z,0.39
2023-02-27T07:25:39.530Z,0.54
2023-02-27T07:28:08.687Z,0.45
2023-02-27T07:30:37.931Z,0.66
2023-02-27T07:33:05.970Z,1.10
2023-02-27T07:35:33.665Z,1.39
2023-02-27T07:38:01.587Z,1.53
2023-02-27T07:40:29.847Z,1.77
2023-02-27T07:42:57.563Z,1.66
2023-02-27T07:45:27.051Z,1.23
2023-02-27T07:47:54.793Z,1.87
2023-02-27T07:50:22.469Z,1.66
2023-02-27T07:52:50.365Z,2.11
2023-02-27T07:55:18.201Z,2.64
2023-02-27T07:57:46.521Z,2.25
2023-02-27T08:00:15.382Z,2.32
2023-02-27T08:02:44.534Z,2.09
2023-02-27T08:05:12.376Z,2.08
2023-02-27T08:07:40.312Z,1.98
2023-02-27T08:10:08.836Z,2.89
2023-02-27T08:12:36.582Z,2.28
2023-02-27T08:15:04.972Z,2.15
2023-02-27T08:17:32.813Z,1.94
2023-02-27T08:20:01.853Z,2.68
2023-02-27T08:22:29.662Z,2.20
2023-02-27T08:24:57.305Z,3.49
2023-02-27T08:27:25.147Z,3.28
2023-02-27T08:29:52.917Z,3.89
2023-02-27T08:32:20.824Z,3.86
2023-02-27T08:34:48.585Z,3.95
2023-02-27T08:37:17.722Z,3.83
2023-02-27T08:39:45.528Z,4.56
2023-02-27T08:42:13.298Z,4.09
2023-02-27T08:44:41.057Z,4.31
2023-02-27T08:47:08.795Z,4.94
2023-02-27T08:49:36.718Z,4.77
2023-02-27T08:52:05.527Z,4.43
2023-02-27T08:54:34.956Z,4.69
2023-02-27T08:57:02.732Z,4.18
2023-02-27T08:59:30.531Z,4.14
2023-02-27T09:01:58.990Z,4.49
2023-02-27T09:04:27.291Z,4.92
2023-02-27T09:06:55.076Z,5.23
2023-02-27T09:09:23.710Z,5.05
2023-02-27T09:11:53.108Z,4.90
2023-02-27T09:14:21.131Z,5.35
2023-02-27T09:16:48.856Z,6.14
2023-02-27T09:19:16.953Z,5.76
2023-02-27T09:21:44.700Z,6.07
2023-02-27T09:24:19.710Z,6.74
2023-02-27T09:26:48.678Z,5.92
2023-02-27T09:29:18.492Z,5.36
2023-02-27T09:31:47.398Z,5.65
2023-02-27T09:34:15.376Z,6.63
2023-02-27T09:36:43.112Z,6.91
2023-02-27T09:39:11.307Z,5.62
2023-02-27T09:41:52.893Z,6.65
2023-02-27T09:44:45.307Z,6.79
2023-02-27T09:47:19.226Z,6.79
2023-02-27T09:49:58.770Z,6.68
2023-02-27T09:52:27.394Z,7.78
2023-02-27T09:54:55.369Z,7.45
2023-02-27T09:57:37.598Z,7.82
2023-02-27T10:00:14.132Z,6.96
2023-02-27T10:02:52.694Z,7.64
2023-02-27T10:05:32.467Z,7.15
2023-02-27T10:08:07.586Z,8.53
2023-02-27T10:10:41.843Z,7.36
2023-02-27T10:13:47.456Z,7.30
2023-02-27T10:16:20.556Z,7.10
2023-02-27T10:18:55.706Z,6.51
2023-02-27T10:21:31.030Z,6.20
2023-02-27T10:24:02.964Z,6.49
2023-02-27T10:26:36.931Z,6.75
2023-02-27T10:29:18.468Z,7.01
2023-02-27T10:31:48.936Z,6.89
2023-02-27T10:34:17.334Z,8.27
2023-02-27T10:36:47.436Z,6.50
2023-02-27T10:39:20.871Z,6.24
2023-02-27T10:41:49.829Z,6.37
2023-02-27T10:44:19.001Z,7.54
2023-02-27T10:46:51.811Z,8.62
2023-02-27T10:49:22.040Z,8.49
2023-02-27T10:52:08.606Z,6.89
2023-02-27T10:54:37.188Z,6.97
2023-02-27T10:57:19.466Z,7.27
2023-02-27T10:59:53.860Z,7.98
2023-02-27T11:02:24.238Z,7.97
2023-02-27T11:04:54.727Z,8.72
2023-02-27T11:07:33.035Z,7.93
2023-02-27T11:10:05.441Z,9.34
2023-02-27T11:12:36.142Z,9.66
2023-02-27T11:15:23.010Z,8.73
2023-02-27T11:17:53.027Z,9.72
2023-02-27T11:20:35.540Z,8.68
2023-02-27T11:23:05.364Z,8.17
2023-02-27T11:25:33.931Z,9.25
2023-02-27T11:28:23.989Z,8.82
2023-02-27T11:31:00.586Z,9.78
2023-02-27T11:33:32.767Z,8.30
2023-02-27T11:36:01.477Z,8.54
2023-02-27T11:38:31.167Z,7.89
2023-02-27T11:41:00.566Z,8.09
2023-02-27T11:43:30.361Z,8.48
2023-02-27T11:46:10.185Z,9.63
2023-02-27T11:48:52.311Z,8.88
2023-02-27T11:51:36.758Z,8.31
2023-02-27T11:54:15.667Z,7.78
2023-02-27T11:56:45.871Z,7.48
2023-02-27T11:59:21.883Z,8.23
2023-02-27T12:01:54.081Z,9.59
2023-02-27T12:04:27.869Z,8.96
2023-02-27T12:07:02.382Z,8.49
2023-02-27T12:09:37.156Z,7.75
2023-02-27T12:12:14.992Z,8.51
2023-02-27T12:14:50.801Z,8.06
2023-02-27T12:17:23.974Z,8.62
2023-02-27T12:20:02.136Z,9.55
2023-02-27T12:22:34.268Z,8.38
2023-02-27T12:25:08.076Z,8.18
2023-02-27T12:27:47.387Z,8.08
2023-02-27T12:30:20.457Z,8.25
2023-02-27T12:32:54.506Z,9.02
2023-02-27T12:35:29.218Z,9.76
2023-02-27T12:37:58.293Z,9.73
2023-02-27T12:40:31.552Z,9.14
2023-02-27T12:43:15.668Z,8.17
2023-02-27T12:45:59.984Z,8.65
2023-02-27T12:48:46.958Z,7.37
2023-02-27T12:51:31.923Z,8.41
2023-02-27T12:54:09.752Z,8.06
2023-02-27T12:56:46.684Z,7.92
2023-02-27T12:59:30.637Z,7.39
2023-02-27T13:02:14.286Z,8.50
2023-02-27T13:04:46.437Z,8.26
2023-02-27T13:07:24.530Z,7.55
2023-02-27T13:09:56.880Z,6.78
2023-02-27T13:12:30.620Z,6.62
2023-02-27T13:15:04.299Z,6.93
2023-02-27T13:17:38.678Z,7.53
2023-02-27T13:20:31.365Z,6.82
2023-02-27T13:23:09.387Z,6.80
2023-02-27T13:25:39.359Z,6.83
2023-02-27T13:28:14.309Z,7.16
2023-02-27T13:30:45.571Z,6.94
2023-02-27T13:33:24.760Z,6.39
2023-02-27T13:35:59.287Z,6.57
2023-02-27T13:38:35.141Z,6.46
2023-02-27T13:41:38.409Z,6.55
2023-02-27T13:44:51.693Z,6.01
2023-02-27T13:47:38.693Z,6.03
2023-02-27T13:50:45.265Z,6.01
2023-02-27T13:53:24.123Z,6.36
2023-02-27T13:56:00.066Z,7.10
2023-02-27T13:58:28.259Z,8.02
2023-02-27T14:00:59.836Z,8.05
2023-02-27T14:03:30.185Z,6.94
2023-02-27T14:06:03.441Z,6.56
2023-02-27T14:08:47.306Z,6.49
2023-02-27T14:11:21.487Z,5.74
2023-02-27T14:14:09.339Z,6.05
2023-02-27T14:16:55.921Z,6.15
2023-02-27T14:19:59.139Z,7.08
2023-02-27T14:23:08.113Z,8.06
2023-02-27T14:25:40.465Z,8.60
2023-02-27T14:28:18.926Z,7.89
2023-02-27T14:30:54.737Z,6.45
2023-02-27T14:33:39.080Z,6.29
2023-02-27T14:36:10.712Z,6.39
2023-02-27T14:38:39.624Z,6.67
2023-02-27T14:41:24.499Z,7.17
2023-02-27T14:43:56.765Z,7.71
2023-02-27T14:46:29.258Z,7.26
2023-02-27T14:48:58.552Z,6.26
2023-02-27T14:51:28.062Z,6.78
2023-02-27T14:54:01.709Z,7.36
2023-02-27T14:56:32.127Z,7.77
2023-02-27T14:59:04.712Z,8.08
2023-02-27T15:01:37.083Z,7.92
2023-02-27T15:04:05.964Z,7.14
2023-02-27T15:06:43.899Z,6.79
2023-02-27T15:09:22.712Z,6.50
2023-02-27T15:12:03.600Z,5.67
2023-02-27T15:14:34.980Z,5.98
2023-02-27T15:17:03.037Z,5.66
2023-02-27T15:19:32.013Z,5.30
2023-02-27T15:22:04.728Z,5.08
2023-02-27T15:24:48.883Z,5.18
2023-02-27T15:27:21.932Z,4.80
2023-02-27T15:29:52.338Z,4.97
2023-02-27T15:32:27.498Z,4.54
2023-02-27T15:34:56.362Z,4.32
2023-02-27T15:37:27.082Z,4.33
2023-02-27T15:39:56.761Z,4.46
2023-02-27T15:42:30.128Z,4.30
2023-02-27T15:44:59.465Z,4.81
2023-02-27T15:47:30.276Z,4.58
2023-02-27T15:50:01.900Z,4.50
2023-02-27T15:52:39.614Z,4.38
2023-02-27T15:55:13.994Z,4.13
2023-02-27T15:57:56.616Z,4.65
2023-02-27T16:00:32.102Z,4.68
2023-02-27T16:03:00.707Z,4.69
2023-02-27T16:05:34.462Z,4.18
2023-02-27T16:08:03.474Z,4.09
2023-02-27T16:10:37.591Z,4.03
2023-02-27T16:13:34.852Z,3.96
2023-02-27T16:16:05.456Z,3.81
2023-02-27T16:18:35.838Z,3.98
2023-02-27T16:21:12.705Z,3.77
2023-02-27T16:23:40.790Z,3.56
2023-02-27T16:26:24.026Z,3.69
2023-02-27T16:28:55.637Z,3.91
2023-02-27T16:31:26.341Z,3.62
2023-02-27T16:33:56.714Z,3.87
2023-02-27T16:36:27.712Z,3.77
2023-02-27T16:38:56.111Z,3.64
2023-02-27T16:41:25.291Z,3.54
2023-02-27T16:43:55.200Z,3.84
2023-02-27T16:46:23.746Z,3.95
2023-02-27T16:48:53.493Z,3.47
2023-02-27T16:51:24.151Z,3.59
2023-02-27T16:53:52.511Z,3.25
2023-02-27T16:56:35.856Z,3.45
2023-02-27T16:59:07.807Z,3.72
2023-02-27T17:01:35.556Z,3.63
2023-02-27T17:04:08.698Z,3.65
2023-02-27T17:06:41.337Z,3.90
2023-02-27T17:09:10.399Z,3.39
2023-02-27T17:11:38.706Z,3.56
2023-02-27T17:14:07.866Z,3.87
2023-02-27T17:16:35.793Z,3.36
2023-02-27T17:19:03.715Z,3.64
2023-02-27T17:21:31.639Z,3.75
2023-02-27T17:23:59.374Z,3.88
2023-02-27T17:26:27.595Z,3.94
2023-02-27T17:28:56.442Z,4.18
2023-02-27T17:31:26.335Z,3.82
2023-02-27T17:33:54.724Z,3.90
2023-02-27T17:36:23.800Z,4.06
2023-02-27T17:38:55.292Z,3.83
2023-02-27T17:41:23.688Z,4.45
2023-02-27T17:43:52.695Z,4.12
2023-02-27T17:46:20.645Z,4.45
2023-02-27T17:48:50.261Z,4.29
2023-02-27T17:51:21.294Z,4.63
2023-02-27T17:53:49.014Z,4.54
2023-02-27T17:56:16.781Z,3.93
2023-02-27T17:58:45.439Z,4.17
2023-02-27T18:01:15.124Z,3.76
2023-02-27T18:03:43.971Z,3.53
2023-02-27T18:06:13.417Z,3.69
2023-02-27T18:08:42.144Z,4.08
2023-02-27T18:11:11.631Z,3.91
2023-02-27T18:13:40.259Z,3.99
2023-02-27T18:16:08.856Z,3.91
2023-02-27T18:18:37.467Z,4.28
2023-02-27T18:21:07.581Z,4.26
2023-02-27T18:23:37.555Z,4.03
2023-02-27T18:26:06.397Z,3.67
2023-02-27T18:28:34.993Z,3.73
2023-02-27T18:31:02.832Z,3.79
2023-02-27T18:33:30.574Z,3.47
2023-02-27T18:35:58.561Z,3.74
2023-02-27T18:38:26.442Z,3.41
2023-02-27T18:40:55.556Z,3.49
2023-02-27T18:43:23.458Z,3.71
2023-02-27T18:45:51.333Z,3.03
2023-02-27T18:48:19.268Z,3.21
2023-02-27T18:50:47.043Z,3.53
2023-02-27T18:53:14.974Z,3.35
2023-02-27T18:55:42.891Z,3.40
2023-02-27T18:58:12.092Z,3.18
2023-02-27T19:00:42.341Z,3.01
2023-02-27T19:03:10.253Z,2.70
2023-02-27T19:05:41.808Z,2.93
2023-02-27T19:08:09.767Z,2.50
2023-02-27T19:10:39.405Z,2.81
2023-02-27T19:13:09.419Z,2.28
2023-02-27T19:15:39.187Z,2.13
2023-02-27T19:18:07.605Z,2.12
2023-02-27T19:20:35.836Z,2.20
2023-02-27T19:23:03.637Z,2.44
2023-02-27T19:25:31.975Z,2.53
2023-02-27T19:28:00.334Z,2.46
2023-02-27T19:30:28.268Z,2.28
2023-02-27T19:32:57.491Z,2.36
2023-02-27T19:35:25.441Z,2.45
2023-02-27T19:37:58.177Z,2.39
2023-02-27T19:40:28.139Z,1.95
2023-02-27T19:42:56.177Z,2.31
2023-02-27T19:45:24.232Z,1.88
2023-02-27T19:47:53.005Z,1.93
2023-02-27T19:50:22.057Z,1.88
2023-02-27T19:52:50.056Z,1.99
2023-02-27T19:55:18.047Z,1.94
2023-02-27T19:57:45.960Z,2.03
2023-02-27T20:00:15.454Z,2.03
2023-02-27T20:02:43.847Z,2.30
2023-02-27T20:05:12.682Z,2.05
2023-02-27T20:07:42.435Z,1.87
2023-02-27T20:10:11.912Z,2.03
2023-02-27T20:12:39.674Z,2.23
2023-02-27T20:15:11.496Z,1.81
2023-02-27T20:17:41.965Z,2.21
2023-02-27T20:20:12.374Z,1.92
2023-02-27T20:22:44.805Z,1.70
2023-02-27T20:25:15.370Z,1.82
2023-02-27T20:27:43.134Z,1.86
2023-02-27T20:30:12.321Z,1.73
2023-02-27T20:32:40.200Z,1.71
2023-02-27T20:35:08.658Z,1.75
2023-02-27T20:37:36.402Z,1.86
2023-02-27T20:40:06.337Z,1.79
2023-02-27T20:42:34.185Z,1.63
2023-02-27T20:45:01.849Z,2.08
2023-02-27T20:47:29.578Z,1.51
2023-02-27T20:49:57.327Z,1.65
2023-02-27T20:52:25.000Z,1.67
2023-02-27T20:54:52.770Z,1.37
2023-02-27T20:57:21.974Z,1.30
2023-02-27T20:59:51.631Z,1.36
2023-02-27T21:02:19.418Z,1.33
2023-02-27T21:04:48.245Z,1.34
2023-02-27T21:07:18.501Z,1.45
2023-02-27T21:09:46.535Z,1.09
2023-02-27T21:12:14.616Z,1.06
2023-02-27T21:14:45.212Z,1.05
2023-02-27T21:17:13.692Z,0.79
2023-02-27T21:19:41.595Z,0.81
2023-02-27T21:22:11.031Z,1.32
2023-02-27T21:24:38.997Z,1.19
2023-02-27T21:27:06.836Z,1.43
2023-02-27T21:29:34.708Z,1.55
2023-02-27T21:32:03.848Z,1.40
2023-02-27T21:34:31.715Z,1.34
2023-02-27T21:37:02.195Z,1.27
2023-02-27T21:39:29.889Z,1.05
2023-02-27T21:41:59.541Z,1.01
2023-02-27T21:44:27.376Z,1.62
2023-02-27T21:46:55.380Z,1.49
2023-02-27T21:49:27.026Z,1.75
2023-02-27T21:51:55.278Z,1.49
2023-02-27T21:54:23.097Z,1.56
2023-02-27T21:56:50.980Z,1.10
2023-02-27T21:59:20.856Z,1.11
2023-02-27T22:01:48.947Z,0.95
2023-02-27T22:04:17.925Z,0.63
2023-02-27T22:06:48.070Z,0.50
2023-02-27T22:09:15.881Z,0.94
2023-02-27T22:11:43.686Z,1.12
2023-02-27T22:14:12.303Z,0.82
2023-02-27T22:16:40.802Z,1.28
2023-02-27T22:19:10.003Z,1.10
2023-02-27T22:21:38.466Z,1.14
2023-02-27T22:24:08.512Z,1.01
2023-02-27T22:26:36.337Z,1.08
2023-02-27T22:29:05.447Z,0.99
2023-02-27T22:31:34.962Z,1.15
2023-02-27T22:34:05.107Z,1.08
2023-02-27T22:36:34.268Z,1.11
2023-02-27T22:39:02.620Z,0.97
2023-02-27T22:41:35.364Z,1.57
2023-02-27T22:44:03.720Z,1.33
2023-02-27T22:46:33.739Z,1.23
2023-02-27T22:49:03.243Z,1.27
2023-02-27T22:51:31.969Z,1.20
2023-02-27T22:54:01.714Z,1.16
2023-02-27T22:56:31.604Z,0.38
2023-02-27T22:58:59.569Z,0.93
2023-02-27T23:01:29.827Z,1.42
2023-02-27T23:03:59.567Z,0.97
2023-02-27T23:06:30.833Z,1.12
2023-02-27T23:08:58.712Z,1.30
2023-02-27T23:11:26.655Z,0.54
2023-02-27T23:13:55.849Z,1.18
2023-02-27T23:16:25.021Z,1.23
2023-02-27T23:18:54.978Z,1.29
2023-02-27T23:21:25.287Z,1.03
2023-02-27T23:23:54.414Z,1.00
2023-02-27T23:26:22.350Z,0.77
2023-02-27T23:28:50.175Z,1.02
2023-02-27T23:31:19.339Z,0.80
2023-02-27T23:33:47.141Z,0.49
2023-02-27T23:36:15.403Z,0.64
2023-02-27T23:38:46.422Z,0.47
2023-02-27T23:41:16.785Z,0.32
2023-02-27T23:44:02.315Z,0.50
2023-02-27T23:46:31.775Z,0.59
2023-02-27T23:48:59.574Z,0.71
2023-02-27T23:51:30.313Z,0.98
2023-02-27T23:53:58.484Z,0.46
2023-02-27T23:56:28.288Z,0.84
2023-02-27T23:58:57.913Z,1.05
